Time;durP1;ratioP1;P1;durP2;ratioP2;P2;SDS_P1;SDS_P2;PMS_P1;PMS_P2;Temp;Humidity;BMP_temperature;BMP_pressure;BME280_temperature;BME280_humidity;BME280_pressure;Samples;Min_cycle;Max_cycle;Signal;HPM_P1;HPM_P2
2022/03/14 00:00:18;;;;;;;;;;;;;;;17.19;56.80;99748.00;2067877;28;19933;-54
2022/03/14 00:01:19;;;;;;;;;;;;;;;17.19;56.72;99747.16;2068856;28;19929;-54
2022/03/14 00:02:20;;;;;;;;;;;;;;;17.17;56.63;99750.00;2072642;28;19932;-55
2022/03/14 00:03:25;;;;;;;;;;;;;;;17.18;56.69;99759.69;2068701;28;19929;-54
2022/03/14 00:04:28;;;;;;;;;;;;;;;17.18;56.67;99750.81;2061883;28;19936;-57
2022/03/14 00:05:31;;;;;;;;;;;;;;;17.16;56.64;99753.69;2069851;28;19937;-54
2022/03/14 00:06:32;;;;;;;;;;;;;;;17.16;56.73;99751.00;2072971;28;19929;-55
2022/03/14 00:07:36;;;;;;;;;;;;;;;17.16;56.62;99753.69;2069420;28;19925;-54
2022/03/14 00:08:40;;;;;;;;;;;;;;;17.14;56.63;99744.97;2075466;28;19929;-53
2022/03/14 00:09:41;;;;;;;;;;;;;;;17.13;56.68;99751.34;2071823;28;19933;-53
2022/03/14 00:10:45;;;;;;;;;;;;;;;17.14;56.68;99755.69;2070657;28;20040;-57
2022/03/14 00:11:46;;;;;;;;;;;;;;;17.12;56.66;99746.13;2073524;28;20480;-56
2022/03/14 00:12:51;;;;;;;;;;;;;;;17.12;56.67;99744.28;2074858;28;19929;-54
2022/03/14 00:13:53;;;;;;;;;;;;;;;17.11;56.71;99750.66;2060144;28;19956;-53
2022/03/14 00:14:59;;;;;;;;;;;;;;;17.11;56.60;99749.84;2067731;28;19929;-53
2022/03/14 00:16:03;;;;;;;;;;;;;;;17.10;56.60;99751.66;2073170;28;19925;-56
2022/03/14 00:17:11;;;;;;;;;;;;;;;17.10;56.81;99754.31;2073760;28;19925;-52
2022/03/14 00:18:12;;;;;;;;;;;;;;;17.10;56.69;99754.31;2070967;28;19925;-55
2022/03/14 00:19:14;;;;;;;;;;;;;;;17.09;56.75;99755.34;2070128;28;19983;-54
2022/03/14 00:20:16;;;;;;;;;;;;;;;17.09;56.76;99759.88;2071251;28;19933;-57
2022/03/14 00:21:18;;;;;;;;;;;;;;;17.09;56.84;99762.56;2071238;28;19971;-51
2022/03/14 00:22:19;;;;;;;;;;;;;;;17.08;56.68;99761.72;2068215;28;19925;-56
2022/03/14 00:23:21;;;;;;;;;;;;;;;17.08;56.89;99767.09;2071960;28;20017;-52
2022/03/14 00:24:21;;;;;;;;;;;;;;;17.07;56.75;99764.56;2071432;28;19968;-55
2022/03/14 00:25:23;;;;;;;;;;;;;;;17.06;56.70;99763.72;2062110;28;20326;-55
2022/03/14 00:26:26;;;;;;;;;;;;;;;17.05;56.73;99764.75;2073321;28;19929;-54
2022/03/14 00:27:27;;;;;;;;;;;;;;;17.05;56.79;99770.09;2072425;28;19935;-51
2022/03/14 00:28:28;;;;;;;;;;;;;;;17.05;56.63;99766.56;2071311;28;19932;-55
2022/03/14 00:29:29;;;;;;;;;;;;;;;17.04;56.71;99764.88;2074408;28;20307;-56
2022/03/14 00:30:30;;;;;;;;;;;;;;;17.04;56.77;99768.41;2071524;28;19972;-52
2022/03/14 00:31:32;;;;;;;;;;;;;;;17.03;56.67;99774.78;2068657;28;19944;-54
2022/03/14 00:32:32;;;;;;;;;;;;;;;17.02;56.82;99773.13;2072847;28;19929;-55
2022/03/14 00:33:35;;;;;;;;;;;;;;;17.01;56.86;99768.75;2073760;28;20644;-55
2022/03/14 00:34:36;;;;;;;;;;;;;;;17.02;56.84;99781.16;2063588;28;19940;-56
2022/03/14 00:35:39;;;;;;;;;;;;;;;17.01;56.76;99776.78;2071894;28;20152;-52
2022/03/14 00:36:43;;;;;;;;;;;;;;;17.00;56.80;99777.78;2074048;28;19928;-54
2022/03/14 00:37:44;;;;;;;;;;;;;;;16.98;56.71;99777.94;2071148;28;19940;-54
2022/03/14 00:38:46;;;;;;;;;;;;;;;16.97;56.83;99770.91;2070975;28;19960;-53
2022/03/14 00:39:47;;;;;;;;;;;;;;;16.97;56.75;99767.41;2072582;28;19925;-55
2022/03/14 00:40:49;;;;;;;;;;;;;;;16.97;56.91;99767.41;2070688;28;19933;-52
2022/03/14 00:41:51;;;;;;;;;;;;;;;16.97;56.80;99775.44;2073067;28;19928;-54
2022/03/14 00:42:51;;;;;;;;;;;;;;;16.95;56.77;99767.56;2063587;28;19929;-56
2022/03/14 00:43:53;;;;;;;;;;;;;;;16.96;56.81;99768.38;2071794;28;20260;-53
2022/03/14 00:44:54;;;;;;;;;;;;;;;16.95;56.75;99769.41;2073687;28;19925;-55
2022/03/14 00:45:56;;;;;;;;;;;;;;;16.95;56.84;99766.72;2070046;28;19960;-52
2022/03/14 00:46:57;;;;;;;;;;;;;;;16.95;56.76;99774.75;2073504;28;19925;-53
2022/03/14 00:47:58;;;;;;;;;;;;;;;16.93;56.85;99764.19;2072356;28;20286;-51
2022/03/14 00:48:59;;;;;;;;;;;;;;;16.93;56.69;99763.38;2070667;28;19932;-55
2022/03/14 00:50:00;;;;;;;;;;;;;;;16.93;56.79;99763.38;2069579;28;19932;-58
2022/03/14 00:51:03;;;;;;;;;;;;;;;16.92;56.92;99767.06;2069507;28;20407;-56
2022/03/14 00:52:05;;;;;;;;;;;;;;;16.90;56.90;99759.16;2070380;28;19948;-53
2022/03/14 00:53:05;;;;;;;;;;;;;;;16.91;56.90;99765.34;2071312;28;20266;-50
2022/03/14 00:54:07;;;;;;;;;;;;;;;16.90;56.77;99764.53;2070166;28;20199;-53
2022/03/14 00:55:08;;;;;;;;;;;;;;;16.90;56.87;99759.16;2070341;28;19929;-52
2022/03/14 00:56:10;;;;;;;;;;;;;;;16.88;56.84;99760.34;2073808;28;19925;-54
2022/03/14 00:57:11;;;;;;;;;;;;;;;16.88;56.92;99757.66;2072706;28;20012;-54
2022/03/14 00:58:12;;;;;;;;;;;;;;;16.87;56.80;99756.00;2076839;28;20020;-57
2022/03/14 00:59:13;;;;;;;;;;;;;;;16.85;56.89;99756.13;2069690;28;19929;-54
2022/03/14 01:00:15;;;;;;;;;;;;;;;16.86;56.87;99751.66;2066831;28;19968;-54
2022/03/14 01:01:15;;;;;;;;;;;;;;;16.86;56.86;99748.97;2072930;28;19965;-53
2022/03/14 01:02:17;;;;;;;;;;;;;;;16.86;56.88;99751.66;2075159;28;20346;-54
2022/03/14 01:03:17;;;;;;;;;;;;;;;16.85;56.95;99744.59;2070464;28;20370;-52
2022/03/14 01:04:19;;;;;;;;;;;;;;;16.84;56.84;99734.88;2070433;28;19929;-54
2022/03/14 01:05:19;;;;;;;;;;;;;;;16.83;56.84;99744.78;2072282;28;20522;-53
2022/03/14 01:06:23;;;;;;;;;;;;;;;16.84;57.05;99745.59;2071571;28;20128;-54
2022/03/14 01:07:23;;;;;;;;;;;;;;;16.82;56.88;99747.59;2070103;28;20395;-50
2022/03/14 01:08:25;;;;;;;;;;;;;;;16.82;56.88;99750.28;2067265;28;20182;-56
2022/03/14 01:09:25;;;;;;;;;;;;;;;16.81;56.91;99745.94;2072270;28;20222;-50
2022/03/14 01:10:28;;;;;;;;;;;;;;;16.80;56.86;99753.16;2073494;28;19933;-52
2022/03/14 01:11:28;;;;;;;;;;;;;;;16.80;56.79;99752.28;2073141;28;19933;-53
2022/03/14 01:12:30;;;;;;;;;;;;;;;16.79;56.93;99745.25;2072435;28;20528;-53
2022/03/14 01:13:30;;;;;;;;;;;;;;;16.79;56.88;99755.97;2071977;28;20035;-56
2022/03/14 01:14:32;;;;;;;;;;;;;;;16.78;56.86;99756.97;2073334;28;19929;-52
2022/03/14 01:15:34;;;;;;;;;;;;;;;16.77;56.82;99747.25;2065072;28;19952;-55
2022/03/14 01:16:37;;;;;;;;;;;;;;;16.78;56.81;99748.94;2072388;28;20054;-57
2022/03/14 01:17:38;;;;;;;;;;;;;;;16.77;56.83;99747.25;2073632;28;20275;-54
2022/03/14 01:18:40;;;;;;;;;;;;;;;16.75;56.87;99742.03;2071072;28;19928;-56
2022/03/14 01:19:41;;;;;;;;;;;;;;;16.75;56.86;99750.09;2069266;28;19932;-53
2022/03/14 01:20:42;;;;;;;;;;;;;;;16.74;56.90;99746.56;2071710;28;19968;-52
2022/03/14 01:21:44;;;;;;;;;;;;;;;16.75;56.97;99750.91;2069118;28;20028;-55
2022/03/14 01:22:46;;;;;;;;;;;;;;;16.73;56.82;99746.72;2072023;28;19965;-56
2022/03/14 01:23:46;;;;;;;;;;;;;;;16.72;56.86;99747.72;2069102;28;19925;-59
2022/03/14 01:24:48;;;;;;;;;;;;;;;16.71;56.80;99757.59;2068568;28;19972;-55
2022/03/14 01:25:49;;;;;;;;;;;;;;;16.71;56.89;99746.88;2072959;28;19929;-55
2022/03/14 01:26:51;;;;;;;;;;;;;;;16.72;56.90;99755.78;2070445;28;20384;-55
2022/03/14 01:27:51;;;;;;;;;;;;;;;16.71;56.89;99756.75;2071463;28;20023;-55
2022/03/14 01:28:53;;;;;;;;;;;;;;;16.70;56.87;99757.75;2069493;28;19956;-53
2022/03/14 01:29:55;;;;;;;;;;;;;;;16.69;56.89;99758.78;2074181;28;20396;-54
2022/03/14 01:30:58;;;;;;;;;;;;;;;16.70;56.90;99755.09;2062645;28;20315;-56
2022/03/14 01:31:58;;;;;;;;;;;;;;;16.67;56.97;99761.59;2073704;28;19971;-53
2022/03/14 01:33:00;;;;;;;;;;;;;;;16.68;56.88;99754.41;2073423;28;19925;-55
2022/03/14 01:34:00;;;;;;;;;;;;;;;16.66;56.92;99765.31;2068556;28;20040;-53
2022/03/14 01:35:02;;;;;;;;;;;;;;;16.65;56.86;99758.25;2069656;28;19945;-51
2022/03/14 01:36:03;;;;;;;;;;;;;;;16.66;56.86;99762.63;2071789;28;19926;-54
2022/03/14 01:37:06;;;;;;;;;;;;;;;16.64;56.90;99759.25;2071677;28;20443;-55
2022/03/14 01:38:07;;;;;;;;;;;;;;;16.64;56.90;99767.28;2071853;28;19929;-54
2022/03/14 01:39:08;;;;;;;;;;;;;;;16.63;57.00;99762.94;2073146;28;20150;-56
2022/03/14 01:40:10;;;;;;;;;;;;;;;16.63;56.88;99767.44;2066509;28;19929;-57
2022/03/14 01:41:11;;;;;;;;;;;;;;;16.62;56.87;99769.28;2068338;28;20202;-53
2022/03/14 01:42:16;;;;;;;;;;;;;;;16.60;56.87;99765.94;2073340;28;19980;-54
2022/03/14 01:43:16;;;;;;;;;;;;;;;16.62;56.90;99771.13;2072833;28;19925;-55
2022/03/14 01:44:19;;;;;;;;;;;;;;;16.61;56.95;99775.66;2069763;28;20380;-55
2022/03/14 01:45:21;;;;;;;;;;;;;;;16.61;56.93;99775.66;2071192;28;20379;-55
2022/03/14 01:46:23;;;;;;;;;;;;;;;16.59;56.93;99769.63;2073547;28;19929;-53
2022/03/14 01:47:24;;;;;;;;;;;;;;;16.59;56.91;99769.63;2073018;28;20546;-53
2022/03/14 01:48:25;;;;;;;;;;;;;;;16.58;56.85;99767.97;2072464;28;20111;-59
2022/03/14 01:49:27;;;;;;;;;;;;;;;16.57;56.86;99768.09;2069309;28;20009;-49
2022/03/14 01:50:29;;;;;;;;;;;;;;;16.57;56.93;99768.94;2070576;28;19929;-50
2022/03/14 01:51:29;;;;;;;;;;;;;;;16.56;56.96;99769.94;2072595;28;20364;-56
2022/03/14 01:52:33;;;;;;;;;;;;;;;16.55;56.90;99768.28;2071832;28;20359;-51
2022/03/14 01:53:35;;;;;;;;;;;;;;;16.56;56.90;99774.47;2072400;28;19933;-56
2022/03/14 01:54:36;;;;;;;;;;;;;;;16.54;56.97;99774.63;2073126;28;19936;-50
2022/03/14 01:55:38;;;;;;;;;;;;;;;16.54;56.95;99779.97;2070482;28;19947;-54
2022/03/14 01:56:40;;;;;;;;;;;;;;;16.53;56.88;99776.47;2072654;28;20090;-49
2022/03/14 01:57:42;;;;;;;;;;;;;;;16.52;56.86;99773.97;2066759;28;20262;-59
2022/03/14 01:58:45;;;;;;;;;;;;;;;16.51;56.94;99775.78;2071904;28;19926;-54
2022/03/14 01:59:47;;;;;;;;;;;;;;;16.51;57.03;99773.09;2073807;28;19932;-52
2022/03/14 02:00:48;;;;;;;;;;;;;;;16.51;57.00;99774.94;2070869;28;19929;-53
2022/03/14 02:01:50;;;;;;;;;;;;;;;16.50;57.03;99776.78;2076415;28;19971;-56
2022/03/14 02:02:50;;;;;;;;;;;;;;;16.49;56.96;99775.13;2071827;28;19926;-53
2022/03/14 02:03:52;;;;;;;;;;;;;;;16.48;57.00;99780.63;2074694;28;19955;-54
2022/03/14 02:04:53;;;;;;;;;;;;;;;16.48;57.00;99780.63;2075464;28;19929;-57
2022/03/14 02:05:55;;;;;;;;;;;;;;;16.47;57.02;99782.47;2076710;28;19929;-59
2022/03/14 02:06:57;;;;;;;;;;;;;;;16.47;57.09;99778.97;2066353;28;19929;-61
2022/03/14 02:08:00;;;;;;;;;;;;;;;16.47;56.99;99789.69;2075462;28;20461;-54
2022/03/14 02:09:00;;;;;;;;;;;;;;;16.47;57.00;99789.69;2074091;28;19936;-53
2022/03/14 02:10:02;;;;;;;;;;;;;;;16.46;57.05;99785.31;2072993;28;19935;-52
2022/03/14 02:11:03;;;;;;;;;;;;;;;16.44;57.07;99785.47;2075400;28;19933;-54
2022/03/14 02:12:06;;;;;;;;;;;;;;;16.43;56.94;99782.94;2067824;28;20222;-55
2022/03/14 02:13:07;;;;;;;;;;;;;;;16.42;57.03;99779.44;2072027;28;20040;-53
2022/03/14 02:14:09;;;;;;;;;;;;;;;16.41;56.97;99787.63;2073082;28;19928;-60
2022/03/14 02:15:09;;;;;;;;;;;;;;;16.42;57.05;99792.81;2073954;28;20011;-55
2022/03/14 02:16:11;;;;;;;;;;;;;;;16.41;56.94;99788.47;2071991;28;19929;-52
2022/03/14 02:17:12;;;;;;;;;;;;;;;16.40;57.02;99789.47;2070457;28;19933;-55
2022/03/14 02:18:14;;;;;;;;;;;;;;;16.40;57.07;99792.13;2075522;28;20444;-57
2022/03/14 02:19:14;;;;;;;;;;;;;;;16.39;56.96;99790.47;2070533;28;20371;-53
2022/03/14 02:20:17;;;;;;;;;;;;;;;16.38;57.00;99787.94;2069127;28;19929;-59
2022/03/14 02:21:18;;;;;;;;;;;;;;;16.38;56.97;99790.63;2070121;28;20598;-56
2022/03/14 02:22:19;;;;;;;;;;;;;;;16.37;57.10;99786.28;2073352;28;20060;-52
2022/03/14 02:23:20;;;;;;;;;;;;;;;16.38;57.10;99790.63;2074333;28;19936;-51
2022/03/14 02:24:22;;;;;;;;;;;;;;;16.36;57.14;99792.66;2071408;28;19935;-55
2022/03/14 02:25:23;;;;;;;;;;;;;;;16.35;57.00;99791.78;2072363;28;19929;-55
2022/03/14 02:26:24;;;;;;;;;;;;;;;16.35;57.08;99783.75;2075602;28;19940;-55
2022/03/14 02:27:25;;;;;;;;;;;;;;;16.34;57.09;99791.97;2069006;28;20370;-58
2022/03/14 02:28:27;;;;;;;;;;;;;;;16.34;57.04;99791.97;2072688;28;19937;-60
2022/03/14 02:29:27;;;;;;;;;;;;;;;16.34;57.12;99794.63;2070519;28;19925;-60
2022/03/14 02:30:29;;;;;;;;;;;;;;;16.32;57.07;99792.09;2060738;28;19933;-51
2022/03/14 02:31:29;;;;;;;;;;;;;;;16.31;57.00;99785.91;2068546;28;20020;-57
2022/03/14 02:32:31;;;;;;;;;;;;;;;16.31;57.19;99791.28;2065949;28;19933;-57
2022/03/14 02:33:32;;;;;;;;;;;;;;;16.31;57.19;99793.94;2071220;28;19925;-57
2022/03/14 02:34:33;;;;;;;;;;;;;;;16.31;57.11;99793.13;2071034;28;19930;-58
2022/03/14 02:35:39;;;;;;;;;;;;;;;16.29;57.09;99785.22;2068814;28;20296;-59
2022/03/14 02:36:39;;;;;;;;;;;;;;;16.29;57.06;99787.06;2070673;28;19964;-57
2022/03/14 02:37:41;;;;;;;;;;;;;;;16.28;57.13;99786.25;2071754;28;19932;-57
2022/03/14 02:38:43;;;;;;;;;;;;;;;16.28;57.18;99788.09;2067351;28;20002;-50
2022/03/14 02:39:47;;;;;;;;;;;;;;;16.27;57.10;99789.09;2072824;28;20447;-58
2022/03/14 02:40:48;;;;;;;;;;;;;;;16.28;57.18;99788.91;2068735;28;19930;-55
2022/03/14 02:41:50;;;;;;;;;;;;;;;16.26;57.10;99788.22;2062609;28;20040;-54
2022/03/14 02:42:51;;;;;;;;;;;;;;;16.26;57.12;99782.03;2070626;28;20020;-57
2022/03/14 02:43:52;;;;;;;;;;;;;;;16.25;57.07;99783.88;2071735;28;19933;-53
2022/03/14 02:44:53;;;;;;;;;;;;;;;16.23;57.15;99783.19;2069725;28;19933;-54
2022/03/14 02:45:54;;;;;;;;;;;;;;;16.23;57.14;99783.19;2070767;28;20359;-54
2022/03/14 02:46:55;;;;;;;;;;;;;;;16.23;57.10;99782.38;2073338;28;20286;-57
2022/03/14 02:47:56;;;;;;;;;;;;;;;16.22;57.14;99786.88;2066446;28;19926;-53
2022/03/14 02:48:57;;;;;;;;;;;;;;;16.22;57.12;99778.03;2073233;28;19987;-56
2022/03/14 02:50:00;;;;;;;;;;;;;;;16.21;57.20;99777.16;2065867;28;20358;-59
2022/03/14 02:51:03;;;;;;;;;;;;;;;16.21;57.18;99777.16;2067195;28;19999;-57
2022/03/14 02:52:04;;;;;;;;;;;;;;;16.20;57.16;99780.00;2072494;28;20055;-52
2022/03/14 02:53:05;;;;;;;;;;;;;;;16.20;57.18;99777.34;2072730;28;19956;-52
2022/03/14 02:54:08;;;;;;;;;;;;;;;16.19;57.17;99783.69;2069106;28;19929;-53
2022/03/14 02:55:10;;;;;;;;;;;;;;;16.19;57.10;99781.84;2070367;28;19929;-54
2022/03/14 02:56:10;;;;;;;;;;;;;;;16.18;57.16;99785.50;2071578;28;20019;-57
2022/03/14 02:57:12;;;;;;;;;;;;;;;16.17;57.21;99783.84;2067361;28;19941;-53
2022/03/14 02:58:12;;;;;;;;;;;;;;;16.16;57.21;99786.66;2073256;28;19956;-53
2022/03/14 02:59:14;;;;;;;;;;;;;;;16.15;57.20;99793.88;2061589;28;19940;-54
2022/03/14 03:00:15;;;;;;;;;;;;;;;16.17;57.17;99797.22;2067123;28;19925;-54
2022/03/14 03:01:16;;;;;;;;;;;;;;;16.15;57.22;99791.19;2071850;28;19936;-51
2022/03/14 03:02:18;;;;;;;;;;;;;;;16.14;57.30;99794.88;2067520;28;20228;-57
2022/03/14 03:03:19;;;;;;;;;;;;;;;16.14;57.24;99788.69;2070806;28;19948;-51
2022/03/14 03:04:20;;;;;;;;;;;;;;;16.13;57.23;99793.22;2071296;28;20423;-57
2022/03/14 03:05:21;;;;;;;;;;;;;;;16.13;57.23;99797.69;2068065;28;19931;-55
2022/03/14 03:06:23;;;;;;;;;;;;;;;16.11;57.21;99792.53;2069839;28;19965;-57
2022/03/14 03:07:25;;;;;;;;;;;;;;;16.12;57.32;99791.50;2065157;28;19936;-61
2022/03/14 03:08:25;;;;;;;;;;;;;;;16.12;57.32;99796.03;2071301;28;19936;-54
2022/03/14 03:09:27;;;;;;;;;;;;;;;16.11;57.22;99800.56;2060105;28;20925;-57
2022/03/14 03:10:28;;;;;;;;;;;;;;;16.11;57.29;99805.06;2070989;28;19972;-58
2022/03/14 03:11:29;;;;;;;;;;;;;;;16.11;57.26;99805.91;2072315;28;19940;-52
2022/03/14 03:12:31;;;;;;;;;;;;;;;16.10;57.36;99806.88;2067829;28;19929;-58
2022/03/14 03:13:35;;;;;;;;;;;;;;;16.09;57.29;99810.56;2071501;28;20207;-62
2022/03/14 03:14:35;;;;;;;;;;;;;;;16.08;57.33;99806.22;2071484;28;19947;-58
2022/03/14 03:15:37;;;;;;;;;;;;;;;16.08;57.28;99806.22;2069739;28;19968;-53
2022/03/14 03:16:38;;;;;;;;;;;;;;;16.07;57.26;99800.03;2073162;28;20028;-51
2022/03/14 03:17:40;;;;;;;;;;;;;;;16.07;57.30;99804.53;2064212;28;20284;-56
2022/03/14 03:18:40;;;;;;;;;;;;;;;16.06;57.22;99800.19;2070060;28;19990;-56
2022/03/14 03:19:42;;;;;;;;;;;;;;;16.07;57.28;99807.19;2071678;28;20241;-51
2022/03/14 03:20:43;;;;;;;;;;;;;;;16.05;57.28;99807.38;2068177;28;20060;-49
2022/03/14 03:21:46;;;;;;;;;;;;;;;16.05;57.31;99817.25;2070538;28;20589;-51
2022/03/14 03:22:46;;;;;;;;;;;;;;;16.04;57.38;99819.06;2070569;28;19929;-49
2022/03/14 03:23:48;;;;;;;;;;;;;;;16.04;57.28;99816.38;2071051;28;19968;-59
2022/03/14 03:24:48;;;;;;;;;;;;;;;16.03;57.26;99813.88;2068596;28;20335;-55
2022/03/14 03:25:50;;;;;;;;;;;;;;;16.03;57.29;99814.72;2068202;28;19929;-58
2022/03/14 03:26:51;;;;;;;;;;;;;;;16.03;57.28;99819.22;2065306;28;19994;-50
2022/03/14 03:27:52;;;;;;;;;;;;;;;16.02;57.22;99814.88;2070767;28;19933;-56
2022/03/14 03:28:53;;;;;;;;;;;;;;;16.01;57.37;99822.06;2072212;28;20328;-50
2022/03/14 03:29:54;;;;;;;;;;;;;;;16.00;57.34;99817.72;2067846;28;20703;-56
2022/03/14 03:30:55;;;;;;;;;;;;;;;16.01;57.36;99815.88;2061952;28;20299;-52
2022/03/14 03:31:56;;;;;;;;;;;;;;;16.01;57.24;99826.56;2070646;28;19930;-58
2022/03/14 03:32:57;;;;;;;;;;;;;;;16.00;57.40;99830.25;2072075;28;19936;-57
2022/03/14 03:33:59;;;;;;;;;;;;;;;16.00;57.35;99828.41;2070270;28;19925;-62
2022/03/14 03:34:59;;;;;;;;;;;;;;;16.00;57.38;99832.94;2072933;28;19990;-50
2022/03/14 03:36:01;;;;;;;;;;;;;;;15.98;57.37;99830.41;2072650;28;19929;-60
2022/03/14 03:37:04;;;;;;;;;;;;;;;15.98;57.35;99834.91;2071312;28;20384;-58
2022/03/14 03:38:05;;;;;;;;;;;;;;;15.98;57.36;99834.91;2071385;28;20020;-53
2022/03/14 03:39:06;;;;;;;;;;;;;;;15.97;57.32;99836.75;2071030;28;20420;-51
2022/03/14 03:40:07;;;;;;;;;;;;;;;15.96;57.40;99835.06;2063878;28;20558;-55
2022/03/14 03:41:09;;;;;;;;;;;;;;;15.96;57.40;99837.72;2068114;28;20008;-56
2022/03/14 03:42:10;;;;;;;;;;;;;;;15.96;57.32;99839.56;2073495;28;20587;-57
2022/03/14 03:43:11;;;;;;;;;;;;;;;15.96;57.41;99836.91;2073863;28;19925;-58
2022/03/14 03:44:12;;;;;;;;;;;;;;;15.95;57.38;99835.22;2073536;28;19929;-56
2022/03/14 03:45:14;;;;;;;;;;;;;;;15.94;57.40;99830.88;2069170;28;19933;-56
2022/03/14 03:46:14;;;;;;;;;;;;;;;15.94;57.42;99836.25;2071877;28;19926;-57
2022/03/14 03:47:16;;;;;;;;;;;;;;;15.93;57.41;99830.03;2068003;28;19929;-52
2022/03/14 03:48:17;;;;;;;;;;;;;;;15.92;57.49;99833.72;2072277;28;20646;-60
2022/03/14 03:49:19;;;;;;;;;;;;;;;15.92;57.49;99825.69;2070787;28;20417;-60
2022/03/14 03:50:20;;;;;;;;;;;;;;;15.91;57.33;99832.03;2066049;28;20934;-52
2022/03/14 03:51:21;;;;;;;;;;;;;;;15.92;57.47;99830.19;2072635;28;20163;-55
2022/03/14 03:52:23;;;;;;;;;;;;;;;15.90;57.42;99830.34;2071967;28;20859;-55
2022/03/14 03:53:24;;;;;;;;;;;;;;;15.89;57.43;99825.16;2071877;28;20303;-55
2022/03/14 03:54:25;;;;;;;;;;;;;;;15.90;57.47;99830.34;2071438;28;20464;-55
2022/03/14 03:55:26;;;;;;;;;;;;;;;15.91;57.33;99836.53;2075004;28;20430;-53
2022/03/14 03:56:29;;;;;;;;;;;;;;;15.89;57.42;99839.38;2069401;28;19925;-59
2022/03/14 03:57:30;;;;;;;;;;;;;;;15.89;57.39;99835.88;2067708;28;19925;-55
2022/03/14 03:58:31;;;;;;;;;;;;;;;15.87;57.42;99830.66;2067250;28;20355;-58
2022/03/14 03:59:32;;;;;;;;;;;;;;;15.86;57.47;99835.19;2073954;28;20394;-55
2022/03/14 04:00:34;;;;;;;;;;;;;;;15.86;57.41;99842.38;2073603;28;19935;-57
2022/03/14 04:01:34;;;;;;;;;;;;;;;15.85;57.44;99844.22;2073464;28;19926;-56
2022/03/14 04:02:39;;;;;;;;;;;;;;;15.85;57.51;99844.22;2070117;28;19929;-58
2022/03/14 04:03:39;;;;;;;;;;;;;;;15.85;57.45;99840.66;2072675;28;20486;-55
2022/03/14 04:04:41;;;;;;;;;;;;;;;15.84;57.51;99842.50;2069692;28;19991;-55
2022/03/14 04:05:42;;;;;;;;;;;;;;;15.83;57.46;99837.34;2076935;28;19929;-58
2022/03/14 04:06:44;;;;;;;;;;;;;;;15.83;57.43;99843.53;2072496;28;20437;-58
2022/03/14 04:07:46;;;;;;;;;;;;;;;15.82;57.49;99844.53;2067429;28;20390;-54
2022/03/14 04:08:48;;;;;;;;;;;;;;;15.82;57.52;99841.84;2074909;28;20506;-52
2022/03/14 04:09:50;;;;;;;;;;;;;;;15.82;57.43;99849.00;2073730;28;19925;-53
2022/03/14 04:10:54;;;;;;;;;;;;;;;15.81;57.49;99844.66;2070018;28;20343;-54
2022/03/14 04:11:55;;;;;;;;;;;;;;;15.80;57.53;99846.50;2068117;28;19925;-55
2022/03/14 04:12:59;;;;;;;;;;;;;;;15.81;57.45;99844.66;2068831;28;20018;-51
2022/03/14 04:14:00;;;;;;;;;;;;;;;15.80;57.48;99849.19;2073694;28;20001;-51
2022/03/14 04:15:06;;;;;;;;;;;;;;;15.80;57.47;99857.22;2074672;28;19929;-55
2022/03/14 04:16:07;;;;;;;;;;;;;;;15.79;57.47;99847.47;2070458;28;19932;-56
2022/03/14 04:17:09;;;;;;;;;;;;;;;15.79;57.51;99850.16;2074479;28;20375;-56
2022/03/14 04:18:10;;;;;;;;;;;;;;;15.78;57.47;99859.19;2070659;28;19933;-54
2022/03/14 04:19:11;;;;;;;;;;;;;;;15.78;57.44;99853.00;2071564;28;20431;-51
2022/03/14 04:20:12;;;;;;;;;;;;;;;15.77;57.38;99857.53;2072294;28;20502;-59
2022/03/14 04:21:14;;;;;;;;;;;;;;;15.78;57.52;99853.00;2064899;28;19933;-62
2022/03/14 04:22:15;;;;;;;;;;;;;;;15.77;57.53;99849.50;2069642;28;20082;-52
2022/03/14 04:23:19;;;;;;;;;;;;;;;15.76;57.46;99855.00;2071492;28;19929;-57
2022/03/14 04:24:20;;;;;;;;;;;;;;;15.75;57.56;99856.84;2070553;28;19929;-58
2022/03/14 04:25:21;;;;;;;;;;;;;;;15.76;57.60;99863.84;2072519;28;19925;-49
2022/03/14 04:26:22;;;;;;;;;;;;;;;15.75;57.59;99856.84;2069534;28;20303;-60
2022/03/14 04:27:24;;;;;;;;;;;;;;;15.75;57.49;99861.34;2070590;28;19925;-60
2022/03/14 04:28:25;;;;;;;;;;;;;;;15.75;57.62;99864.84;2070919;28;19933;-53
2022/03/14 04:29:27;;;;;;;;;;;;;;;15.73;57.55;99869.50;2067902;28;20304;-57
2022/03/14 04:30:29;;;;;;;;;;;;;;;15.73;57.53;99866.84;2073832;28;19929;-55
2022/03/14 04:31:29;;;;;;;;;;;;;;;15.73;57.59;99871.34;2071421;28;19938;-57
2022/03/14 04:32:31;;;;;;;;;;;;;;;15.72;57.59;99870.53;2072232;28;20360;-51
2022/03/14 04:33:32;;;;;;;;;;;;;;;15.72;57.56;99867.00;2071346;28;20216;-54
2022/03/14 04:34:33;;;;;;;;;;;;;;;15.71;57.60;99873.34;2065301;28;19929;-62
2022/03/14 04:35:35;;;;;;;;;;;;;;;15.71;57.54;99867.97;2073815;28;19929;-56
2022/03/14 04:36:37;;;;;;;;;;;;;;;15.71;57.59;99868.84;2074429;28;19933;-56
2022/03/14 04:37:37;;;;;;;;;;;;;;;15.70;57.56;99872.50;2071526;28;20357;-57
2022/03/14 04:38:40;;;;;;;;;;;;;;;15.70;57.41;99882.38;2074130;28;19925;-57
2022/03/14 04:39:41;;;;;;;;;;;;;;;15.69;57.57;99873.50;2068319;28;19931;-58
2022/03/14 04:40:43;;;;;;;;;;;;;;;15.69;57.66;99876.19;2070148;28;19940;-55
2022/03/14 04:41:44;;;;;;;;;;;;;;;15.68;57.70;99878.97;2072631;28;19991;-55
2022/03/14 04:42:45;;;;;;;;;;;;;;;15.68;57.64;99886.97;2068143;28;19963;-54
2022/03/14 04:43:46;;;;;;;;;;;;;;;15.68;57.67;99882.50;2075565;28;20030;-56
2022/03/14 04:44:49;;;;;;;;;;;;;;;15.67;57.58;99886.16;2072713;28;19934;-60
2022/03/14 04:45:49;;;;;;;;;;;;;;;15.67;57.65;99893.34;2071803;28;20110;-54
2022/03/14 04:46:51;;;;;;;;;;;;;;;15.67;57.60;99888.00;2072023;28;19937;-54
2022/03/14 04:47:51;;;;;;;;;;;;;;;15.65;57.60;99891.63;2073154;28;19929;-53
2022/03/14 04:48:53;;;;;;;;;;;;;;;15.65;57.70;99890.81;2072128;28;19941;-52
2022/03/14 04:49:54;;;;;;;;;;;;;;;15.65;57.69;99896.16;2069875;28;19964;-57
2022/03/14 04:50:56;;;;;;;;;;;;;;;15.64;57.63;99898.00;2066439;28;20392;-55
2022/03/14 04:51:57;;;;;;;;;;;;;;;15.64;57.65;99892.66;2072482;28;19929;-60
2022/03/14 04:52:58;;;;;;;;;;;;;;;15.63;57.59;99892.81;2074518;28;20342;-52
2022/03/14 04:54:01;;;;;;;;;;;;;;;15.65;57.62;99896.16;2074196;28;19929;-52
2022/03/14 04:55:02;;;;;;;;;;;;;;;15.64;57.60;99894.47;2071114;28;19982;-54
2022/03/14 04:56:04;;;;;;;;;;;;;;;15.64;57.59;99900.66;2074479;28;19936;-53
2022/03/14 04:57:05;;;;;;;;;;;;;;;15.65;57.58;99897.00;2073351;28;20444;-55
2022/03/14 04:58:12;;;;;;;;;;;;;;;15.66;57.68;99897.84;2071756;28;19976;-54
2022/03/14 04:59:13;;;;;;;;;;;;;;;15.66;57.60;99895.19;2069822;28;20013;-55
2022/03/14 05:00:14;;;;;;;;;;;;;;;15.67;57.44;99899.53;2071666;28;19932;-56
2022/03/14 05:01:16;;;;;;;;;;;;;;;15.67;57.62;99894.19;2074611;28;19991;-52
2022/03/14 05:02:19;;;;;;;;;;;;;;;15.68;57.62;99889.66;2071462;28;19941;-52
2022/03/14 05:03:21;;;;;;;;;;;;;;;15.68;57.51;99895.88;2074418;28;19956;-56
2022/03/14 05:04:21;;;;;;;;;;;;;;;15.70;57.53;99890.38;2071619;28;19929;-51
2022/03/14 05:05:23;;;;;;;;;;;;;;;15.69;57.54;99897.56;2072353;28;19983;-56
2022/03/14 05:06:23;;;;;;;;;;;;;;;15.70;57.73;99896.56;2065461;28;19926;-53
2022/03/14 05:07:25;;;;;;;;;;;;;;;15.71;57.69;99894.72;2076863;28;19928;-55
2022/03/14 05:08:26;;;;;;;;;;;;;;;15.71;57.61;99898.28;2071521;28;19925;-55
2022/03/14 05:09:28;;;;;;;;;;;;;;;15.72;57.55;99901.78;2072988;28;20171;-55
2022/03/14 05:10:29;;;;;;;;;;;;;;;15.74;57.57;99897.09;2072163;28;20319;-56
2022/03/14 05:11:32;;;;;;;;;;;;;;;15.74;57.75;99908.66;2074524;28;19992;-54
2022/03/14 05:12:34;;;;;;;;;;;;;;;15.76;57.59;99897.78;2071121;28;19929;-52
2022/03/14 05:13:35;;;;;;;;;;;;;;;15.77;57.66;99900.31;2072192;28;20222;-57
2022/03/14 05:14:36;;;;;;;;;;;;;;;15.78;57.60;99901.16;2071444;28;20457;-55
2022/03/14 05:15:37;;;;;;;;;;;;;;;15.79;57.63;99905.50;2067854;28;20177;-57
2022/03/14 05:16:38;;;;;;;;;;;;;;;15.81;57.75;99906.19;2070992;28;20275;-54
2022/03/14 05:17:40;;;;;;;;;;;;;;;15.82;57.82;99907.88;2069253;28;19932;-53
2022/03/14 05:18:41;;;;;;;;;;;;;;;15.84;57.78;99906.72;2069445;28;19936;-53
2022/03/14 05:19:42;;;;;;;;;;;;;;;15.86;57.72;99910.09;2072644;28;19940;-54
2022/03/14 05:20:43;;;;;;;;;;;;;;;15.89;57.65;99913.47;2070453;28;19933;-53